CPA500 VHHH-RJAA
Flight info
| Callsign | CPA500 |
|---|---|
| Flight time | 1h 46m |
| Altitude | 41000 |
| Route | DALOL V631 ENVAR M750 MUKEP Y891 AGIMO Y89 GUPER Y81 RUTAS |
| Aircraft | A359/H-SDE2E3GHIJ3J4J5LM1ORWXY/LB1D1 |
Departure
| Time | 2026-05-03 23:54 |
|---|---|
| Airport | Hong Kong International Airport (VHHH) |
Arrival
| Time | 2026-05-04 01:40 |
|---|---|
| Airport | Narita International Airport (RJAA) |
| Time | Latitude | Longitude | Altitude | Speed | Heading |
|---|---|---|---|---|---|
| 2026-05-03 23:10 | 22.30880 | 113.91733 | 24 ft | 0 kts | 71° |
| 2026-05-03 23:39 | 22.30878 | 113.91726 | 44 ft | 2 kts | 70° |
| 2026-05-03 23:39 | 22.30874 | 113.91714 | 46 ft | 1 kts | 66° |
| 2026-05-03 23:40 | 22.30871 | 113.91706 | 45 ft | 0 kts | 66° |
| 2026-05-03 23:40 | 22.30870 | 113.91704 | 42 ft | 2 kts | 65° |
| 2026-05-03 23:40 | 22.30863 | 113.91688 | 40 ft | 2 kts | 62° |
| 2026-05-03 23:41 | 22.30855 | 113.91672 | 40 ft | 2 kts | 57° |
| 2026-05-03 23:41 | 22.30845 | 113.91658 | 39 ft | 2 kts | 47° |
| 2026-05-03 23:41 | 22.30833 | 113.91646 | 39 ft | 2 kts | 24° |
| 2026-05-03 23:41 | 22.30817 | 113.91643 | 41 ft | 2 kts | 350° |
| 2026-05-03 23:42 | 22.30807 | 113.91645 | 42 ft | 1 kts | 342° |
| 2026-05-03 23:42 | 22.30806 | 113.91646 | 42 ft | 0 kts | 342° |
| 2026-05-03 23:45 | 22.30874 | 113.91621 | 43 ft | 14 kts | 340° |
| 2026-05-03 23:45 | 22.30979 | 113.91581 | 43 ft | 21 kts | 341° |
| 2026-05-03 23:45 | 22.31074 | 113.91545 | 43 ft | 22 kts | 340° |
| 2026-05-03 23:46 | 22.31222 | 113.91490 | 43 ft | 24 kts | 341° |
| 2026-05-03 23:46 | 22.31364 | 113.91436 | 43 ft | 9 kts | 340° |
| 2026-05-03 23:46 | 22.31405 | 113.91415 | 44 ft | 0 kts | 330° |
| 2026-05-03 23:46 | 22.31427 | 113.91400 | 44 ft | 0 kts | 327° |
| 2026-05-03 23:47 | 22.31461 | 113.91381 | 44 ft | 9 kts | 336° |
| 2026-05-03 23:48 | 22.31526 | 113.91361 | 45 ft | 10 kts | 348° |
| 2026-05-03 23:48 | 22.31604 | 113.91342 | 45 ft | 13 kts | 346° |
| 2026-05-03 23:48 | 22.31694 | 113.91304 | 44 ft | 15 kts | 328° |
| 2026-05-03 23:48 | 22.31730 | 113.91273 | 44 ft | 0 kts | 317° |
| 2026-05-03 23:49 | 22.31759 | 113.91225 | 44 ft | 6 kts | 313° |
| 2026-05-03 23:49 | 22.31780 | 113.91198 | 44 ft | 15 kts | 306° |
| 2026-05-03 23:49 | 22.31789 | 113.91108 | 42 ft | 11 kts | 257° |
| 2026-05-03 23:49 | 22.31747 | 113.90969 | 43 ft | 35 kts | 251° |
| 2026-05-03 23:50 | 22.31665 | 113.90714 | 43 ft | 36 kts | 250° |
| 2026-05-03 23:50 | 22.31605 | 113.90529 | 43 ft | 6 kts | 251° |
| 2026-05-03 23:50 | 22.31556 | 113.90377 | 43 ft | 44 kts | 251° |
| 2026-05-03 23:50 | 22.31488 | 113.90167 | 43 ft | 31 kts | 251° |
| 2026-05-03 23:51 | 22.31403 | 113.89906 | 43 ft | 38 kts | 251° |
| 2026-05-03 23:51 | 22.31314 | 113.89633 | 43 ft | 38 kts | 245° |
| 2026-05-03 23:51 | 22.31162 | 113.89403 | 43 ft | 36 kts | 232° |
| 2026-05-03 23:51 | 22.31087 | 113.89333 | 43 ft | 5 kts | 191° |
| 2026-05-03 23:52 | 22.31004 | 113.89352 | 43 ft | 12 kts | 151° |
| 2026-05-03 23:52 | 22.30977 | 113.89389 | 43 ft | 15 kts | 109° |
| 2026-05-03 23:52 | 22.30985 | 113.89462 | 43 ft | 0 kts | 71° |
| 2026-05-03 23:53 | 22.31019 | 113.89566 | 43 ft | 48 kts | 71° |
| 2026-05-03 23:53 | 22.31212 | 113.90163 | 42 ft | 118 kts | 70° |
| 2026-05-03 23:53 | 22.31549 | 113.91212 | 53 ft | 175 kts | 70° |
| 2026-05-03 23:54 | 22.31937 | 113.92448 | 940 ft | 165 kts | 71° |
| 2026-05-03 23:54 | 22.32313 | 113.93637 | 1544 ft | 173 kts | 69° |
| 2026-05-03 23:54 | 22.32736 | 113.94931 | 1858 ft | 191 kts | 68° |
| 2026-05-03 23:54 | 22.33188 | 113.96331 | 2220 ft | 203 kts | 69° |
| 2026-05-03 23:55 | 22.33536 | 113.97851 | 2701 ft | 211 kts | 77° |
| 2026-05-03 23:55 | 22.33799 | 113.99430 | 3191 ft | 217 kts | 78° |
| 2026-05-03 23:55 | 22.34058 | 114.01066 | 3625 ft | 225 kts | 78° |
| 2026-05-03 23:55 | 22.34314 | 114.02764 | 4146 ft | 233 kts | 81° |
| 2026-05-03 23:56 | 22.34291 | 114.04533 | 4705 ft | 238 kts | 102° |
| 2026-05-03 23:56 | 22.33701 | 114.06169 | 5299 ft | 238 kts | 124° |
| 2026-05-03 23:56 | 22.32570 | 114.07494 | 5873 ft | 240 kts | 144° |
| 2026-05-03 23:56 | 22.31103 | 114.08392 | 6173 ft | 252 kts | 162° |
| 2026-05-03 23:57 | 22.29373 | 114.08786 | 6632 ft | 255 kts | 180° |
| 2026-05-03 23:57 | 22.27575 | 114.08805 | 7050 ft | 264 kts | 185° |
| 2026-05-03 23:57 | 22.25688 | 114.08751 | 7393 ft | 277 kts | 185° |
| 2026-05-03 23:57 | 22.23743 | 114.08707 | 7919 ft | 281 kts | 185° |
| 2026-05-03 23:58 | 22.21777 | 114.08676 | 8502 ft | 284 kts | 185° |
| 2026-05-03 23:58 | 22.19790 | 114.08651 | 9094 ft | 287 kts | 185° |
| 2026-05-03 23:58 | 22.17809 | 114.08805 | 9635 ft | 295 kts | 172° |
| 2026-05-03 23:58 | 22.15927 | 114.09764 | 10174 ft | 308 kts | 145° |
| 2026-05-03 23:59 | 22.14532 | 114.11603 | 10453 ft | 327 kts | 121° |
| 2026-05-03 23:59 | 22.13476 | 114.13835 | 10696 ft | 341 kts | 118° |
| 2026-05-03 23:59 | 22.12413 | 114.16180 | 10929 ft | 354 kts | 118° |
| 2026-05-03 23:59 | 22.11296 | 114.18599 | 11159 ft | 366 kts | 118° |
| 2026-05-04 00:00 | 22.10129 | 114.21091 | 11359 ft | 377 kts | 119° |
| 2026-05-04 00:00 | 22.08926 | 114.23634 | 11640 ft | 385 kts | 119° |
| 2026-05-04 00:00 | 22.07486 | 114.26072 | 11994 ft | 386 kts | 133° |
| 2026-05-04 00:00 | 22.05508 | 114.28004 | 12416 ft | 384 kts | 146° |
| 2026-05-04 00:01 | 22.03347 | 114.29710 | 12830 ft | 386 kts | 148° |
| 2026-05-04 00:01 | 22.01159 | 114.31409 | 13221 ft | 389 kts | 148° |
| 2026-05-04 00:01 | 21.98966 | 114.33120 | 13644 ft | 390 kts | 147° |
| 2026-05-04 00:01 | 21.96788 | 114.34826 | 14014 ft | 393 kts | 147° |
| 2026-05-04 00:02 | 21.94279 | 114.36804 | 14433 ft | 394 kts | 147° |
| 2026-05-04 00:02 | 21.92063 | 114.38547 | 14839 ft | 396 kts | 148° |
| 2026-05-04 00:02 | 21.89835 | 114.40298 | 15201 ft | 397 kts | 148° |
| 2026-05-04 00:02 | 21.87604 | 114.42069 | 15579 ft | 400 kts | 146° |
| 2026-05-04 00:03 | 21.85589 | 114.44154 | 15941 ft | 407 kts | 131° |
| 2026-05-04 00:03 | 21.84164 | 114.46811 | 16324 ft | 415 kts | 114° |
| 2026-05-04 00:03 | 21.83289 | 114.49786 | 16694 ft | 419 kts | 108° |
| 2026-05-04 00:03 | 21.82190 | 114.54180 | 17198 ft | 423 kts | 107° |
| 2026-05-04 00:04 | 21.79092 | 114.66331 | 18507 ft | 432 kts | 108° |
| 2026-05-04 00:04 | 21.76540 | 114.76185 | 19411 ft | 440 kts | 108° |
| 2026-05-04 00:04 | 21.75717 | 114.79356 | 19708 ft | 442 kts | 108° |
| 2026-05-04 00:04 | 21.74897 | 114.82557 | 19998 ft | 444 kts | 107° |
| 2026-05-04 00:05 | 21.74374 | 114.85846 | 20280 ft | 449 kts | 97° |
| 2026-05-04 00:05 | 21.74193 | 114.89208 | 20560 ft | 452 kts | 93° |
| 2026-05-04 00:05 | 21.74167 | 114.92607 | 20838 ft | 455 kts | 91° |
| 2026-05-04 00:05 | 21.74209 | 114.96017 | 21111 ft | 457 kts | 91° |
| 2026-05-04 00:06 | 21.74266 | 114.99406 | 21376 ft | 460 kts | 91° |
| 2026-05-04 00:06 | 21.74314 | 115.02851 | 21642 ft | 462 kts | 91° |
| 2026-05-04 00:06 | 21.74345 | 115.06316 | 21902 ft | 464 kts | 91° |
| 2026-05-04 00:06 | 21.74360 | 115.09799 | 22157 ft | 466 kts | 91° |
| 2026-05-04 00:07 | 21.74364 | 115.13299 | 22409 ft | 468 kts | 92° |
| 2026-05-04 00:07 | 21.74360 | 115.16805 | 22663 ft | 470 kts | 92° |
| 2026-05-04 00:07 | 21.74352 | 115.20327 | 22923 ft | 472 kts | 92° |
| 2026-05-04 00:07 | 21.74345 | 115.23867 | 23158 ft | 474 kts | 92° |
| 2026-05-04 00:08 | 21.74337 | 115.27429 | 23402 ft | 476 kts | 92° |
| 2026-05-04 00:08 | 21.74328 | 115.30995 | 23629 ft | 478 kts | 92° |
| 2026-05-04 00:08 | 21.74317 | 115.34582 | 23835 ft | 480 kts | 92° |
| 2026-05-04 00:08 | 21.74309 | 115.38180 | 24028 ft | 482 kts | 92° |
| 2026-05-04 00:09 | 21.74300 | 115.41787 | 24239 ft | 484 kts | 92° |
| 2026-05-04 00:09 | 21.74289 | 115.45422 | 24442 ft | 486 kts | 92° |
| 2026-05-04 00:09 | 21.74277 | 115.49021 | 24649 ft | 487 kts | 92° |
| 2026-05-04 00:09 | 21.74265 | 115.52672 | 24853 ft | 489 kts | 92° |
| 2026-05-04 00:10 | 21.74252 | 115.56339 | 24970 ft | 493 kts | 92° |
| 2026-05-04 00:10 | 21.74239 | 115.60049 | 25055 ft | 498 kts | 91° |
| 2026-05-04 00:10 | 21.74227 | 115.63786 | 25138 ft | 502 kts | 91° |
| 2026-05-04 00:10 | 21.74213 | 115.67565 | 25220 ft | 506 kts | 91° |
| 2026-05-04 00:11 | 21.74199 | 115.71365 | 25299 ft | 510 kts | 91° |
| 2026-05-04 00:11 | 21.74183 | 115.75192 | 25376 ft | 514 kts | 91° |
| 2026-05-04 00:11 | 21.74164 | 115.79052 | 25454 ft | 518 kts | 91° |
| 2026-05-04 00:11 | 21.74145 | 115.82942 | 25534 ft | 521 kts | 91° |
| 2026-05-04 00:12 | 21.74126 | 115.86854 | 25604 ft | 525 kts | 91° |
| 2026-05-04 00:12 | 21.74104 | 115.90808 | 25673 ft | 528 kts | 91° |
| 2026-05-04 00:12 | 21.74081 | 115.94728 | 25748 ft | 531 kts | 91° |
| 2026-05-04 00:12 | 21.74058 | 115.98729 | 25821 ft | 534 kts | 91° |
| 2026-05-04 00:13 | 21.74034 | 116.02738 | 25890 ft | 537 kts | 91° |
| 2026-05-04 00:13 | 21.74009 | 116.06774 | 25951 ft | 540 kts | 91° |
| 2026-05-04 00:13 | 21.73983 | 116.11087 | 26011 ft | 543 kts | 91° |
| 2026-05-04 00:13 | 21.73889 | 116.24842 | 26240 ft | 549 kts | 91° |
| 2026-05-04 00:14 | 21.73858 | 116.28944 | 26345 ft | 549 kts | 91° |
| 2026-05-04 00:14 | 21.73826 | 116.33062 | 26446 ft | 550 kts | 91° |
| 2026-05-04 00:14 | 21.73792 | 116.37179 | 26549 ft | 551 kts | 91° |
| 2026-05-04 00:14 | 21.73758 | 116.41292 | 26642 ft | 552 kts | 91° |
| 2026-05-04 00:15 | 21.73723 | 116.45429 | 26741 ft | 552 kts | 91° |
| 2026-05-04 00:15 | 21.73687 | 116.49566 | 26843 ft | 553 kts | 91° |
| 2026-05-04 00:15 | 21.73650 | 116.53705 | 26942 ft | 554 kts | 91° |
| 2026-05-04 00:15 | 21.73612 | 116.57850 | 27043 ft | 555 kts | 91° |
| 2026-05-04 00:16 | 21.73572 | 116.61996 | 27138 ft | 555 kts | 91° |
| 2026-05-04 00:16 | 21.73532 | 116.66148 | 27238 ft | 556 kts | 91° |
| 2026-05-04 00:16 | 21.73489 | 116.70318 | 27343 ft | 557 kts | 91° |
| 2026-05-04 00:16 | 21.73497 | 116.74482 | 27434 ft | 558 kts | 88° |
| 2026-05-04 00:17 | 21.73945 | 116.78631 | 27530 ft | 559 kts | 79° |
| 2026-05-04 00:17 | 21.74969 | 116.82665 | 27616 ft | 560 kts | 71° |
| 2026-05-04 00:17 | 21.76241 | 116.86582 | 27714 ft | 560 kts | 69° |
| 2026-05-04 00:17 | 21.77629 | 116.90503 | 27815 ft | 561 kts | 68° |
| 2026-05-04 00:18 | 21.79068 | 116.94411 | 27881 ft | 562 kts | 67° |
| 2026-05-04 00:18 | 21.80520 | 116.98313 | 27964 ft | 562 kts | 67° |
| 2026-05-04 00:18 | 21.83412 | 117.06145 | 28130 ft | 564 kts | 68° |
| 2026-05-04 00:19 | 21.86269 | 117.14017 | 28289 ft | 565 kts | 68° |
| 2026-05-04 00:19 | 21.89113 | 117.21926 | 28394 ft | 566 kts | 68° |
| 2026-05-04 00:20 | 21.91961 | 117.29856 | 28504 ft | 567 kts | 68° |
| 2026-05-04 00:20 | 21.94787 | 117.37742 | 28593 ft | 568 kts | 68° |
| 2026-05-04 00:21 | 21.99905 | 117.51054 | 28687 ft | 568 kts | 59° |
| 2026-05-04 00:21 | 22.03892 | 117.58404 | 28740 ft | 568 kts | 57° |
| 2026-05-04 00:22 | 22.19130 | 117.85175 | 28824 ft | 570 kts | 57° |
| 2026-05-04 00:22 | 22.32941 | 118.09447 | 28861 ft | 570 kts | 56° |
| 2026-05-04 00:23 | 22.37204 | 118.16691 | 28860 ft | 571 kts | 56° |
| 2026-05-04 00:23 | 22.49977 | 118.39044 | 28888 ft | 572 kts | 57° |
| 2026-05-04 00:24 | 22.58074 | 118.53416 | 29948 ft | 554 kts | 57° |
| 2026-05-04 00:24 | 22.66034 | 118.67377 | 31507 ft | 543 kts | 57° |
| 2026-05-04 00:24 | 22.74015 | 118.81401 | 32316 ft | 550 kts | 57° |
| 2026-05-04 00:24 | 22.82064 | 118.95614 | 33060 ft | 556 kts | 57° |
| 2026-05-04 00:25 | 22.90158 | 119.09937 | 34107 ft | 556 kts | 57° |
| 2026-05-04 00:25 | 22.95216 | 119.18915 | 34811 ft | 554 kts | 56° |
| 2026-05-04 00:25 | 23.00874 | 119.28975 | 35595 ft | 552 kts | 56° |
| 2026-05-04 00:25 | 23.02874 | 119.32535 | 35901 ft | 551 kts | 56° |
| 2026-05-04 00:26 | 23.06923 | 119.39749 | 36477 ft | 551 kts | 56° |
| 2026-05-04 00:26 | 23.08918 | 119.43308 | 36788 ft | 550 kts | 56° |
| 2026-05-04 00:26 | 23.10997 | 119.47020 | 37129 ft | 549 kts | 56° |
| 2026-05-04 00:26 | 23.13336 | 119.51200 | 37493 ft | 548 kts | 56° |
| 2026-05-04 00:27 | 23.15313 | 119.54736 | 37792 ft | 548 kts | 56° |
| 2026-05-04 00:27 | 23.17290 | 119.58272 | 38092 ft | 547 kts | 56° |
| 2026-05-04 00:27 | 23.19268 | 119.61807 | 38392 ft | 546 kts | 56° |
| 2026-05-04 00:27 | 23.21241 | 119.65334 | 38682 ft | 546 kts | 56° |
| 2026-05-04 00:28 | 23.23216 | 119.68868 | 38928 ft | 545 kts | 56° |
| 2026-05-04 00:28 | 23.25178 | 119.72386 | 39168 ft | 544 kts | 56° |
| 2026-05-04 00:28 | 23.27112 | 119.75857 | 39417 ft | 543 kts | 56° |
| 2026-05-04 00:28 | 23.29068 | 119.79369 | 39661 ft | 542 kts | 56° |
| 2026-05-04 00:29 | 23.31019 | 119.82875 | 39920 ft | 541 kts | 56° |
| 2026-05-04 00:29 | 23.32969 | 119.86380 | 40157 ft | 540 kts | 56° |
| 2026-05-04 00:29 | 23.34938 | 119.89870 | 40366 ft | 538 kts | 53° |
| 2026-05-04 00:29 | 23.37199 | 119.93082 | 40570 ft | 533 kts | 44° |
| 2026-05-04 00:30 | 23.39774 | 119.95985 | 40767 ft | 530 kts | 40° |
| 2026-05-04 00:30 | 23.42406 | 119.98784 | 40967 ft | 529 kts | 39° |
| 2026-05-04 00:30 | 23.47724 | 120.04253 | 40997 ft | 528 kts | 39° |
| 2026-05-04 00:31 | 23.53104 | 120.09743 | 41001 ft | 534 kts | 39° |
| 2026-05-04 00:31 | 23.58552 | 120.15337 | 40999 ft | 540 kts | 39° |
| 2026-05-04 00:32 | 23.63536 | 120.20481 | 40998 ft | 543 kts | 39° |
| 2026-05-04 00:32 | 23.68083 | 120.25189 | 41000 ft | 543 kts | 39° |
| 2026-05-04 00:33 | 23.89841 | 120.47765 | 41009 ft | 544 kts | 39° |
| 2026-05-04 00:34 | 24.11621 | 120.70739 | 41039 ft | 545 kts | 39° |
| 2026-05-04 00:34 | 24.20333 | 120.79966 | 41044 ft | 545 kts | 39° |
| 2026-05-04 00:35 | 24.33355 | 120.93790 | 41060 ft | 545 kts | 39° |
| 2026-05-04 00:35 | 24.53332 | 121.18726 | 41130 ft | 550 kts | 47° |
| 2026-05-04 00:36 | 24.72393 | 121.45133 | 41146 ft | 551 kts | 47° |
| 2026-05-04 00:36 | 24.91456 | 121.71637 | 41161 ft | 553 kts | 46° |
| 2026-05-04 00:37 | 25.11698 | 121.97239 | 41128 ft | 554 kts | 44° |
| 2026-05-04 00:37 | 25.21271 | 122.09614 | 41123 ft | 556 kts | 45° |
| 2026-05-04 00:38 | 25.26282 | 122.16135 | 41123 ft | 556 kts | 45° |
| 2026-05-04 00:38 | 25.31285 | 122.22644 | 41123 ft | 557 kts | 45° |
| 2026-05-04 00:39 | 25.41675 | 122.36182 | 41121 ft | 557 kts | 45° |
| 2026-05-04 00:39 | 25.61760 | 122.62359 | 41124 ft | 558 kts | 44° |
| 2026-05-04 00:40 | 25.81915 | 122.88657 | 41125 ft | 559 kts | 45° |
| 2026-05-04 00:40 | 26.02028 | 123.15078 | 41132 ft | 560 kts | 45° |
| 2026-05-04 00:41 | 26.22142 | 123.41656 | 41135 ft | 562 kts | 45° |
| 2026-05-04 00:41 | 26.31223 | 123.53708 | 41139 ft | 562 kts | 45° |
| 2026-05-04 00:42 | 26.47556 | 123.75468 | 41136 ft | 563 kts | 45° |
| 2026-05-04 00:42 | 26.67668 | 124.02413 | 41130 ft | 564 kts | 45° |
| 2026-05-04 00:43 | 26.87819 | 124.29414 | 41147 ft | 565 kts | 45° |
| 2026-05-04 00:43 | 27.07933 | 124.56552 | 41150 ft | 566 kts | 45° |
| 2026-05-04 00:44 | 27.28102 | 124.83895 | 41140 ft | 568 kts | 45° |
| 2026-05-04 00:44 | 27.48151 | 125.11140 | 41141 ft | 569 kts | 45° |
| 2026-05-04 00:45 | 27.68461 | 125.38611 | 41148 ft | 570 kts | 45° |
| 2026-05-04 00:45 | 27.88717 | 125.66227 | 41151 ft | 571 kts | 45° |
| 2026-05-04 00:46 | 28.08984 | 125.94036 | 41137 ft | 572 kts | 45° |
| 2026-05-04 00:46 | 28.29210 | 126.21972 | 41139 ft | 573 kts | 45° |
| 2026-05-04 00:47 | 28.49386 | 126.50022 | 41137 ft | 574 kts | 46° |
| 2026-05-04 00:47 | 28.69414 | 126.78054 | 41126 ft | 575 kts | 46° |
| 2026-05-04 00:48 | 28.89561 | 127.06443 | 41127 ft | 575 kts | 46° |
| 2026-05-04 00:48 | 29.09659 | 127.34957 | 41126 ft | 576 kts | 46° |
| 2026-05-04 00:49 | 29.29706 | 127.63597 | 41116 ft | 577 kts | 46° |
| 2026-05-04 00:49 | 29.49739 | 127.92418 | 41105 ft | 578 kts | 46° |
| 2026-05-04 00:50 | 29.69754 | 128.21387 | 41101 ft | 579 kts | 47° |
| 2026-05-04 00:50 | 29.89751 | 128.50536 | 41098 ft | 580 kts | 47° |
| 2026-05-04 00:51 | 30.09725 | 128.79863 | 41086 ft | 581 kts | 47° |
| 2026-05-04 00:51 | 30.29557 | 129.09208 | 41083 ft | 583 kts | 47° |
| 2026-05-04 00:52 | 30.49543 | 129.38976 | 41072 ft | 585 kts | 48° |
| 2026-05-04 00:52 | 30.69477 | 129.68903 | 41056 ft | 587 kts | 48° |
| 2026-05-04 00:53 | 30.88792 | 129.99612 | 41044 ft | 591 kts | 55° |
| 2026-05-04 00:53 | 31.06079 | 130.32300 | 41033 ft | 592 kts | 56° |
| 2026-05-04 00:54 | 31.23192 | 130.64861 | 41022 ft | 592 kts | 56° |
| 2026-05-04 00:54 | 31.40334 | 130.97760 | 41006 ft | 591 kts | 56° |
| 2026-05-04 00:55 | 31.57421 | 131.30833 | 40977 ft | 592 kts | 56° |
| 2026-05-04 00:55 | 31.74352 | 131.63919 | 40939 ft | 594 kts | 57° |
| 2026-05-04 00:56 | 31.91329 | 131.97393 | 40959 ft | 595 kts | 57° |
| 2026-05-04 00:56 | 32.08213 | 132.30981 | 40943 ft | 596 kts | 57° |
| 2026-05-04 00:57 | 32.21902 | 132.61577 | 40929 ft | 598 kts | 63° |
| 2026-05-04 00:57 | 32.26149 | 132.71807 | 40928 ft | 598 kts | 63° |
| 2026-05-04 00:58 | 32.40938 | 133.07008 | 40918 ft | 596 kts | 63° |
| 2026-05-04 00:58 | 32.55539 | 133.42154 | 40910 ft | 594 kts | 63° |
| 2026-05-04 00:59 | 32.69992 | 133.77297 | 40904 ft | 591 kts | 64° |
| 2026-05-04 00:59 | 32.83603 | 134.12836 | 40888 ft | 589 kts | 74° |
| 2026-05-04 01:00 | 32.92832 | 134.49934 | 40875 ft | 587 kts | 75° |
| 2026-05-04 01:00 | 33.00954 | 134.87424 | 40856 ft | 581 kts | 85° |
| 2026-05-04 01:01 | 33.05037 | 135.25692 | 40851 ft | 581 kts | 86° |
| 2026-05-04 01:01 | 33.09061 | 135.63887 | 40830 ft | 580 kts | 87° |
| 2026-05-04 01:02 | 33.12947 | 136.02174 | 40821 ft | 582 kts | 88° |
| 2026-05-04 01:02 | 33.16716 | 136.40575 | 40807 ft | 583 kts | 88° |
| 2026-05-04 01:03 | 33.20378 | 136.79063 | 40796 ft | 582 kts | 88° |
| 2026-05-04 01:03 | 33.24518 | 137.17127 | 40784 ft | 583 kts | 82° |
| 2026-05-04 01:04 | 33.31248 | 137.55045 | 40779 ft | 582 kts | 82° |
| 2026-05-04 01:04 | 33.37822 | 137.92930 | 40782 ft | 580 kts | 82° |
| 2026-05-04 01:05 | 33.43823 | 138.27793 | 40767 ft | 580 kts | 78° |
| 2026-05-04 01:05 | 33.45185 | 138.32348 | 40775 ft | 584 kts | 66° |
| 2026-05-04 01:05 | 33.47090 | 138.36667 | 40773 ft | 584 kts | 61° |
| 2026-05-04 01:06 | 33.51245 | 138.45037 | 40775 ft | 584 kts | 59° |
| 2026-05-04 01:06 | 33.55534 | 138.53323 | 40774 ft | 584 kts | 59° |
| 2026-05-04 01:07 | 33.63967 | 138.69820 | 40767 ft | 584 kts | 59° |
| 2026-05-04 01:07 | 33.80791 | 139.03230 | 40756 ft | 583 kts | 59° |
| 2026-05-04 01:08 | 33.97383 | 139.36478 | 40743 ft | 579 kts | 60° |
| 2026-05-04 01:08 | 34.15076 | 139.68183 | 40730 ft | 568 kts | 50° |
| 2026-05-04 01:09 | 34.34860 | 139.98036 | 40707 ft | 569 kts | 51° |
| 2026-05-04 01:09 | 34.37816 | 140.02551 | 40497 ft | 564 kts | 51° |
| 2026-05-04 01:09 | 34.40320 | 140.06360 | 39748 ft | 567 kts | 51° |
| 2026-05-04 01:09 | 34.45182 | 140.13783 | 38332 ft | 573 kts | 53° |
| 2026-05-04 01:10 | 34.47395 | 140.17802 | 37494 ft | 575 kts | 58° |
| 2026-05-04 01:10 | 34.49541 | 140.21907 | 36699 ft | 577 kts | 58° |
| 2026-05-04 01:10 | 34.51684 | 140.26036 | 35913 ft | 580 kts | 58° |
| 2026-05-04 01:10 | 34.53830 | 140.30183 | 35128 ft | 582 kts | 58° |
| 2026-05-04 01:11 | 34.55985 | 140.34354 | 34346 ft | 584 kts | 58° |
| 2026-05-04 01:11 | 34.58138 | 140.38528 | 33502 ft | 584 kts | 58° |
| 2026-05-04 01:11 | 34.60128 | 140.42395 | 32618 ft | 587 kts | 57° |
| 2026-05-04 01:11 | 34.62261 | 140.46543 | 31701 ft | 589 kts | 57° |
| 2026-05-04 01:12 | 34.64426 | 140.50773 | 30783 ft | 590 kts | 58° |
| 2026-05-04 01:12 | 34.66576 | 140.54970 | 29859 ft | 594 kts | 57° |
| 2026-05-04 01:12 | 34.68761 | 140.59234 | 28910 ft | 594 kts | 57° |
| 2026-05-04 01:12 | 34.71042 | 140.63422 | 28007 ft | 590 kts | 51° |
| 2026-05-04 01:13 | 34.73877 | 140.66984 | 27209 ft | 581 kts | 36° |
| 2026-05-04 01:13 | 34.77138 | 140.69666 | 26057 ft | 553 kts | 23° |
| 2026-05-04 01:13 | 34.80644 | 140.71397 | 24433 ft | 536 kts | 9° |
| 2026-05-04 01:13 | 34.84253 | 140.72068 | 22771 ft | 517 kts | 354° |
| 2026-05-04 01:14 | 34.87756 | 140.71738 | 21101 ft | 496 kts | 343° |
| 2026-05-04 01:14 | 34.91158 | 140.71248 | 19635 ft | 488 kts | 347° |
| 2026-05-04 01:14 | 34.94488 | 140.71072 | 18234 ft | 483 kts | 351° |
| 2026-05-04 01:14 | 34.97802 | 140.71152 | 17135 ft | 469 kts | 354° |
| 2026-05-04 01:15 | 35.00955 | 140.71376 | 16741 ft | 440 kts | 354° |
| 2026-05-04 01:15 | 35.03994 | 140.71644 | 16290 ft | 436 kts | 355° |
| 2026-05-04 01:15 | 35.07008 | 140.71944 | 15753 ft | 434 kts | 355° |
| 2026-05-04 01:15 | 35.10023 | 140.72341 | 15172 ft | 438 kts | 360° |
| 2026-05-04 01:16 | 35.13036 | 140.73013 | 14593 ft | 441 kts | 2° |
| 2026-05-04 01:16 | 35.16045 | 140.73742 | 14003 ft | 440 kts | 2° |
| 2026-05-04 01:16 | 35.19043 | 140.74458 | 13420 ft | 439 kts | 2° |
| 2026-05-04 01:16 | 35.22042 | 140.75161 | 12789 ft | 437 kts | 2° |
| 2026-05-04 01:17 | 35.25021 | 140.75850 | 12191 ft | 433 kts | 2° |
| 2026-05-04 01:17 | 35.27921 | 140.76522 | 11830 ft | 423 kts | 2° |
| 2026-05-04 01:17 | 35.30747 | 140.77181 | 11678 ft | 406 kts | 2° |
| 2026-05-04 01:17 | 35.33478 | 140.77816 | 11554 ft | 390 kts | 1° |
| 2026-05-04 01:18 | 35.36096 | 140.78419 | 11424 ft | 376 kts | 1° |
| 2026-05-04 01:18 | 35.38627 | 140.79000 | 11299 ft | 363 kts | 0° |
| 2026-05-04 01:18 | 35.41063 | 140.79560 | 11164 ft | 350 kts | 0° |
| 2026-05-04 01:18 | 35.43426 | 140.80100 | 11037 ft | 339 kts | 360° |
| 2026-05-04 01:19 | 35.45708 | 140.80622 | 10909 ft | 328 kts | 360° |
| 2026-05-04 01:19 | 35.47921 | 140.81130 | 10794 ft | 318 kts | 359° |
| 2026-05-04 01:19 | 35.50058 | 140.81619 | 10654 ft | 307 kts | 359° |
| 2026-05-04 01:19 | 35.52134 | 140.82094 | 10487 ft | 300 kts | 359° |
| 2026-05-04 01:20 | 35.54146 | 140.82552 | 10241 ft | 295 kts | 359° |
| 2026-05-04 01:20 | 35.55506 | 140.82863 | 10064 ft | 293 kts | 358° |
| 2026-05-04 01:20 | 35.58096 | 140.83467 | 9907 ft | 278 kts | 358° |
| 2026-05-04 01:20 | 35.59382 | 140.83761 | 9907 ft | 280 kts | 358° |
| 2026-05-04 01:21 | 35.61944 | 140.84334 | 9912 ft | 283 kts | 358° |
| 2026-05-04 01:21 | 35.63224 | 140.84625 | 9907 ft | 282 kts | 358° |
| 2026-05-04 01:21 | 35.65157 | 140.85069 | 9910 ft | 283 kts | 358° |
| 2026-05-04 01:21 | 35.67093 | 140.85569 | 9904 ft | 289 kts | 4° |
| 2026-05-04 01:22 | 35.68989 | 140.86522 | 9911 ft | 298 kts | 17° |
| 2026-05-04 01:22 | 35.70848 | 140.87673 | 9909 ft | 299 kts | 18° |
| 2026-05-04 01:22 | 35.72696 | 140.88839 | 9910 ft | 299 kts | 18° |
| 2026-05-04 01:22 | 35.74549 | 140.89999 | 9912 ft | 299 kts | 18° |
| 2026-05-04 01:23 | 35.76415 | 140.91117 | 9906 ft | 295 kts | 13° |
| 2026-05-04 01:23 | 35.78361 | 140.91638 | 9910 ft | 278 kts | 348° |
| 2026-05-04 01:23 | 35.80224 | 140.91368 | 9918 ft | 262 kts | 333° |
| 2026-05-04 01:23 | 35.81885 | 140.90643 | 9918 ft | 247 kts | 319° |
| 2026-05-04 01:24 | 35.83259 | 140.89578 | 9906 ft | 218 kts | 304° |
| 2026-05-04 01:24 | 35.84212 | 140.88219 | 9825 ft | 205 kts | 290° |
| 2026-05-04 01:24 | 35.84944 | 140.86735 | 9616 ft | 201 kts | 286° |
| 2026-05-04 01:24 | 35.85615 | 140.85233 | 9372 ft | 200 kts | 285° |
| 2026-05-04 01:25 | 35.86259 | 140.83740 | 9206 ft | 199 kts | 285° |
| 2026-05-04 01:25 | 35.86899 | 140.82220 | 9046 ft | 199 kts | 284° |
| 2026-05-04 01:25 | 35.87536 | 140.80703 | 8929 ft | 199 kts | 285° |
| 2026-05-04 01:25 | 35.88173 | 140.79190 | 8842 ft | 199 kts | 285° |
| 2026-05-04 01:26 | 35.88810 | 140.77675 | 8638 ft | 198 kts | 285° |
| 2026-05-04 01:26 | 35.89443 | 140.76174 | 8397 ft | 197 kts | 285° |
| 2026-05-04 01:26 | 35.90077 | 140.74664 | 8289 ft | 199 kts | 285° |
| 2026-05-04 01:26 | 35.90711 | 140.73149 | 8171 ft | 198 kts | 285° |
| 2026-05-04 01:27 | 35.91345 | 140.71634 | 8049 ft | 198 kts | 285° |
| 2026-05-04 01:27 | 35.91979 | 140.70124 | 7917 ft | 198 kts | 286° |
| 2026-05-04 01:27 | 35.92612 | 140.68614 | 7793 ft | 198 kts | 285° |
| 2026-05-04 01:27 | 35.93242 | 140.67102 | 7668 ft | 199 kts | 286° |
| 2026-05-04 01:28 | 35.93874 | 140.65586 | 7442 ft | 199 kts | 286° |
| 2026-05-04 01:28 | 35.94505 | 140.64074 | 7194 ft | 198 kts | 286° |
| 2026-05-04 01:28 | 35.95140 | 140.62553 | 6965 ft | 199 kts | 287° |
| 2026-05-04 01:28 | 35.95774 | 140.61041 | 6727 ft | 199 kts | 287° |
| 2026-05-04 01:29 | 35.96404 | 140.59530 | 6491 ft | 200 kts | 287° |
| 2026-05-04 01:29 | 35.97040 | 140.57999 | 6262 ft | 200 kts | 288° |
| 2026-05-04 01:29 | 35.97676 | 140.56468 | 6070 ft | 201 kts | 288° |
| 2026-05-04 01:29 | 35.98219 | 140.55046 | 6021 ft | 190 kts | 282° |
| 2026-05-04 01:30 | 35.98554 | 140.53458 | 5952 ft | 183 kts | 274° |
| 2026-05-04 01:30 | 35.98770 | 140.51943 | 5742 ft | 176 kts | 272° |
| 2026-05-04 01:30 | 35.98965 | 140.50473 | 5490 ft | 173 kts | 271° |
| 2026-05-04 01:30 | 35.99157 | 140.49004 | 5246 ft | 173 kts | 271° |
| 2026-05-04 01:31 | 35.99350 | 140.47527 | 5086 ft | 174 kts | 272° |
| 2026-05-04 01:31 | 35.99543 | 140.46069 | 5000 ft | 173 kts | 272° |
| 2026-05-04 01:31 | 35.99741 | 140.44596 | 4914 ft | 176 kts | 271° |
| 2026-05-04 01:31 | 35.99941 | 140.43124 | 4813 ft | 173 kts | 271° |
| 2026-05-04 01:32 | 36.00136 | 140.41644 | 4736 ft | 174 kts | 271° |
| 2026-05-04 01:32 | 36.00333 | 140.40165 | 4636 ft | 176 kts | 271° |
| 2026-05-04 01:32 | 36.00534 | 140.38682 | 4532 ft | 174 kts | 271° |
| 2026-05-04 01:32 | 36.00736 | 140.37184 | 4458 ft | 175 kts | 271° |
| 2026-05-04 01:33 | 36.00934 | 140.35705 | 4358 ft | 177 kts | 271° |
| 2026-05-04 01:33 | 36.01108 | 140.34211 | 4249 ft | 174 kts | 268° |
| 2026-05-04 01:33 | 36.01062 | 140.32736 | 4154 ft | 169 kts | 255° |
| 2026-05-04 01:33 | 36.00696 | 140.31387 | 4075 ft | 169 kts | 241° |
| 2026-05-04 01:34 | 36.00127 | 140.30133 | 3979 ft | 165 kts | 238° |
| 2026-05-04 01:34 | 35.99528 | 140.28910 | 3888 ft | 168 kts | 237° |
| 2026-05-04 01:34 | 35.98929 | 140.27689 | 3783 ft | 167 kts | 238° |
| 2026-05-04 01:34 | 35.98329 | 140.26448 | 3697 ft | 165 kts | 238° |
| 2026-05-04 01:35 | 35.97650 | 140.25292 | 3578 ft | 169 kts | 227° |
| 2026-05-04 01:35 | 35.96694 | 140.24467 | 3483 ft | 172 kts | 208° |
| 2026-05-04 01:35 | 35.95513 | 140.24188 | 3378 ft | 179 kts | 187° |
| 2026-05-04 01:35 | 35.94286 | 140.24567 | 3281 ft | 188 kts | 164° |
| 2026-05-04 01:36 | 35.93119 | 140.25364 | 3191 ft | 191 kts | 158° |
| 2026-05-04 01:36 | 35.91989 | 140.26217 | 3095 ft | 192 kts | 158° |
| 2026-05-04 01:36 | 35.90852 | 140.27071 | 3012 ft | 188 kts | 159° |
| 2026-05-04 01:36 | 35.89715 | 140.27910 | 2946 ft | 191 kts | 159° |
| 2026-05-04 01:37 | 35.88576 | 140.28747 | 2895 ft | 190 kts | 160° |
| 2026-05-04 01:37 | 35.87453 | 140.29576 | 2776 ft | 185 kts | 160° |
| 2026-05-04 01:37 | 35.86343 | 140.30382 | 2467 ft | 185 kts | 160° |
| 2026-05-04 01:37 | 35.85210 | 140.31196 | 2060 ft | 192 kts | 160° |
| 2026-05-04 01:38 | 35.84067 | 140.32016 | 1719 ft | 187 kts | 159° |
| 2026-05-04 01:38 | 35.83016 | 140.32797 | 1520 ft | 165 kts | 160° |
| 2026-05-04 01:38 | 35.82092 | 140.33488 | 1260 ft | 147 kts | 162° |
| 2026-05-04 01:38 | 35.81229 | 140.34102 | 1037 ft | 141 kts | 161° |
| 2026-05-04 01:39 | 35.80365 | 140.34713 | 893 ft | 143 kts | 160° |
| 2026-05-04 01:39 | 35.79552 | 140.35303 | 738 ft | 135 kts | 160° |
| 2026-05-04 01:39 | 35.78728 | 140.35893 | 529 ft | 138 kts | 158° |
| 2026-05-04 01:39 | 35.77895 | 140.36500 | 296 ft | 139 kts | 159° |
| 2026-05-04 01:40 | 35.77070 | 140.37102 | 149 ft | 135 kts | 157° |
| 2026-05-04 01:40 | 35.76362 | 140.37606 | 151 ft | 103 kts | 150° |
| 2026-05-04 01:40 | 35.75962 | 140.37909 | 151 ft | 27 kts | 140° |
| 2026-05-04 01:40 | 35.75853 | 140.38083 | 152 ft | 26 kts | 120° |
| 2026-05-04 01:41 | 35.75825 | 140.38245 | 151 ft | 16 kts | 66° |
| 2026-05-04 01:41 | 35.75892 | 140.38318 | 150 ft | 8 kts | 0° |
| 2026-05-04 01:41 | 35.75997 | 140.38259 | 150 ft | 22 kts | 341° |
| 2026-05-04 01:41 | 35.76018 | 140.38260 | 150 ft | 8 kts | 16° |
| 2026-05-04 01:42 | 35.76102 | 140.38294 | 150 ft | 8 kts | 346° |
| 2026-05-04 01:42 | 35.76154 | 140.38261 | 150 ft | 9 kts | 326° |
| 2026-05-04 01:42 | 35.76215 | 140.38214 | 150 ft | 13 kts | 328° |
| 2026-05-04 01:42 | 35.76275 | 140.38205 | 150 ft | 4 kts | 38° |
| 2026-05-04 01:43 | 35.76314 | 140.38268 | 150 ft | 7 kts | 59° |
| 2026-05-04 01:43 | 35.76318 | 140.38276 | 150 ft | 0 kts | 59° |
| 2026-05-04 01:43 | 35.76323 | 140.38285 | 150 ft | 0 kts | 59° |